Holmes City, MN (56341)

1:41 AM CDT on May 04, 2015 (GMT -0500)
Alexandria Minnesota | | Change Station
CLOSE
Current Station
Personal Weather Station
Location: Alexandria, MN
Elevation: 1397 ft
Nearby Weather Stations

Elev 1397 ft 45.87 °N, 95.47 °W | Updated 3 seconds ago

Clear
Clear
48.1 °F
Feels Like 48 °F
N
2.3
Wind Variable Wind from NW
Gusts 3.0 mph

Today
High -- | Low -- °F
--% Chance of Precip.
Yesterday
High -- | Low -- °F
Precip. -- in
6:05 AM 8:33 PM
Full, 100% visible
Pressure 30.06 in
Visibility 10.0 miles
Clouds Clear
Windchill 48 °F
Dew Point 33 °F
Humidity 57%
Rainfall 0.00 in
Snow Depth Not available.
UV 0 out of 12
Pollen 10.30 out of 12
Air Quality Not available.
Flu Activity Sporadic
METAR KAXN 040553Z AUTO 31005KT 10SM CLR 08/01 A3004 RMK AO2 SLP177 T00780011 10178 20072 402060072 51034

More Conditions Fewer Conditions

Pressure 30.06 in
Visibility 10.0 miles
Clouds Clear
Windchill 48 °F
Dew Point 33 °F
Humidity 57%
Rainfall 0.00 in
Snow Depth Not available.
UV 0 out of 12
Pollen 10.30 out of 12
Air Quality Not available.
Flu Activity Sporadic
METAR KAXN 040553Z AUTO 31005KT 10SM CLR 08/01 A3004 RMK AO2 SLP177 T00780011 10178 20072 402060072 51034

More Conditions Fewer Conditions

Nepal has a long way to go to dig out and rebuild from a devastating earthquake. We have teamed up with several charities and organizations to make contributing to the relief effort as easy as possible.
How you can help: Portlight Strategies | Red Cross

10-Day Weather Forecast

Almanac

Astronomy

May. 04, 2015 Rise Set
Actual Time
Civil Twilight
Nautical Twilight
Astronomical Twilight
Moon
Length of Visible Light
Length of Day
Tomorrow will be .
, % of the Moon is Illuminated

Today's Extremes

State Highs State Lows

Community

WunderPhotos

Upload Photos

1,818,534 photos uploaded!

WunderBlogs® & News

Nearby

Air Quality

  Air Quality AQ Index Pollutant
Not available.

Snow Depth

Station Depth Elevation

Earthquake Activity

City Distance Mag. Time & Date
Minimum magnitude displayed is 2.5.

Coastal Water Temperatures

Place Temperature

Stations

Nearby Weather Stations

Station Location Temp. Windchill Dew Point Humidity Wind Precip. Elev Updated Type